createdAt,value
2023-04-21T00:00:52.684Z,1.90
2023-04-21T00:03:21.104Z,2.55
2023-04-21T00:05:48.387Z,1.90
2023-04-21T00:08:15.543Z,1.88
2023-04-21T00:10:42.193Z,1.98
2023-04-21T00:13:08.711Z,2.10
2023-04-21T00:15:35.323Z,2.10
2023-04-21T00:18:02.103Z,2.10
2023-04-21T00:20:28.759Z,1.90
2023-04-21T00:22:56.133Z,2.10
2023-04-21T00:25:23.250Z,2.03
2023-04-21T00:27:49.819Z,2.00
2023-04-21T00:30:16.549Z,1.88
2023-04-21T00:32:43.218Z,1.95
2023-04-21T00:35:10.127Z,1.88
2023-04-21T00:37:36.801Z,1.90
2023-04-21T00:40:04.808Z,2.03
2023-04-21T00:42:31.580Z,2.05
2023-04-21T00:44:58.137Z,1.70
2023-04-21T00:47:25.541Z,2.03
2023-04-21T00:49:52.190Z,1.77
2023-04-21T00:52:19.088Z,1.95
2023-04-21T00:54:45.726Z,1.83
2023-04-21T00:57:12.263Z,1.90
2023-04-21T00:59:38.865Z,1.90
2023-04-21T01:02:05.907Z,1.90
2023-04-21T01:04:37.023Z,1.60
2023-04-21T01:07:04.323Z,1.63
2023-04-21T01:09:30.897Z,1.77
2023-04-21T01:12:02.210Z,1.90
2023-04-21T01:14:28.954Z,1.92
2023-04-21T01:16:55.563Z,1.70
2023-04-21T01:19:22.875Z,2.10
2023-04-21T01:21:49.443Z,1.90
2023-04-21T01:24:15.979Z,1.90
2023-04-21T01:26:46.043Z,1.58
2023-04-21T01:29:12.575Z,1.80
2023-04-21T01:31:39.158Z,1.70
2023-04-21T01:34:07.633Z,1.80
2023-04-21T01:36:35.981Z,1.60
2023-04-21T01:39:02.790Z,1.95
2023-04-21T01:41:29.752Z,1.80
2023-04-21T01:43:56.383Z,1.80
2023-04-21T01:46:24.612Z,1.90
2023-04-21T01:48:51.249Z,1.80
2023-04-21T01:51:17.842Z,1.90
2023-04-21T01:53:44.362Z,1.80
2023-04-21T01:56:14.288Z,1.80
2023-04-21T01:58:40.830Z,1.92
2023-04-21T02:01:07.454Z,1.80
2023-04-21T02:03:35.608Z,1.77
2023-04-21T02:06:02.319Z,1.65
2023-04-21T02:08:28.920Z,1.90
2023-04-21T02:10:55.543Z,1.77
2023-04-21T02:13:22.039Z,2.00
2023-04-21T02:15:48.916Z,1.95
2023-04-21T02:18:16.706Z,1.80
2023-04-21T02:20:44.109Z,1.80
2023-04-21T02:23:10.806Z,1.90
2023-04-21T02:25:37.381Z,1.52
2023-04-21T02:28:05.040Z,1.60
2023-04-21T02:30:31.630Z,1.70
2023-04-21T02:32:58.400Z,1.75
2023-04-21T02:35:25.063Z,1.63
2023-04-21T02:37:51.603Z,1.80
2023-04-21T02:40:18.191Z,1.70
2023-04-21T02:42:45.061Z,1.70
2023-04-21T02:45:11.664Z,1.75
2023-04-21T02:47:38.413Z,1.98
2023-04-21T02:50:05.550Z,1.50
2023-04-21T02:52:36.680Z,1.73
2023-04-21T02:55:03.952Z,1.50
2023-04-21T02:57:30.529Z,1.85
2023-04-21T02:59:57.099Z,1.70
2023-04-21T03:02:23.791Z,1.60
2023-04-21T03:04:51.006Z,1.65
2023-04-21T03:07:17.564Z,1.58
2023-04-21T03:09:44.114Z,1.80
2023-04-21T03:12:10.677Z,1.90
2023-04-21T03:14:37.256Z,1.75
2023-04-21T03:17:03.820Z,1.77
2023-04-21T03:19:31.485Z,1.67
2023-04-21T03:21:58.118Z,1.60
2023-04-21T03:24:24.793Z,1.80
2023-04-21T03:26:51.491Z,1.88
2023-04-21T03:29:18.264Z,1.70
2023-04-21T03:31:45.011Z,1.65
2023-04-21T03:34:11.746Z,1.77
2023-04-21T03:36:38.570Z,1.60
2023-04-21T03:39:18.785Z,1.55
2023-04-21T03:41:46.357Z,1.90
2023-04-21T03:44:12.883Z,1.88
2023-04-21T03:46:39.579Z,1.65
2023-04-21T03:49:06.494Z,1.70
2023-04-21T03:51:33.003Z,1.70
2023-04-21T03:53:59.654Z,1.55
2023-04-21T03:56:26.145Z,1.50
2023-04-21T03:58:53.344Z,1.50
2023-04-21T04:01:20.805Z,1.67
2023-04-21T04:03:47.431Z,1.58
2023-04-21T04:06:14.199Z,1.50
2023-04-21T04:08:40.736Z,1.60
2023-04-21T04:11:07.354Z,1.65
2023-04-21T04:13:33.910Z,1.70
2023-04-21T04:16:01.249Z,1.50
2023-04-21T04:18:27.859Z,1.50
2023-04-21T04:20:54.476Z,1.50
2023-04-21T04:23:21.832Z,1.60
2023-04-21T04:25:49.181Z,1.50
2023-04-21T04:28:16.037Z,1.42
2023-04-21T04:30:43.721Z,1.60
2023-04-21T04:33:11.670Z,1.70
2023-04-21T04:35:38.247Z,1.70
2023-04-21T04:38:04.856Z,1.55
2023-04-21T04:40:33.221Z,1.58
2023-04-21T04:43:01.283Z,1.63
2023-04-21T04:45:28.534Z,1.70
2023-04-21T04:47:55.313Z,1.40
2023-04-21T04:50:21.979Z,1.50
2023-04-21T04:52:49.704Z,1.55
2023-04-21T04:55:16.323Z,1.55
2023-04-21T04:57:42.918Z,1.50
2023-04-21T05:00:11.345Z,1.50
2023-04-21T05:02:38.561Z,1.90
2023-04-21T05:05:06.784Z,1.58
2023-04-21T05:07:36.784Z,1.52
2023-04-21T05:10:04.512Z,1.60
2023-04-21T05:12:32.302Z,1.50
2023-04-21T05:14:58.890Z,1.58
2023-04-21T05:17:25.958Z,1.50
2023-04-21T05:19:52.489Z,1.42
2023-04-21T05:22:19.061Z,1.80
2023-04-21T05:24:45.675Z,1.50
2023-04-21T05:27:12.223Z,1.35
2023-04-21T05:29:38.921Z,1.50
2023-04-21T05:32:06.054Z,1.70
2023-04-21T05:34:32.724Z,1.70
2023-04-21T05:36:59.302Z,1.60
2023-04-21T05:39:27.603Z,1.73
2023-04-21T05:41:54.244Z,1.73
2023-04-21T05:44:21.125Z,1.45
2023-04-21T05:46:47.861Z,1.50
2023-04-21T05:49:14.549Z,1.75
2023-04-21T05:51:41.300Z,1.45
2023-04-21T05:54:07.839Z,1.50
2023-04-21T05:56:35.497Z,1.70
2023-04-21T05:59:02.081Z,1.48
2023-04-21T06:01:28.706Z,1.30
2023-04-21T06:03:55.452Z,1.55
2023-04-21T06:06:22.091Z,1.60
2023-04-21T06:08:48.690Z,1.45
2023-04-21T06:11:15.393Z,1.60
2023-04-21T06:13:43.552Z,1.40
2023-04-21T06:16:10.338Z,4.35
2023-04-21T06:18:39.982Z,16.67
2023-04-21T06:21:06.524Z,40.20
2023-04-21T06:23:33.096Z,30.40
2023-04-21T06:26:06.827Z,20.15
2023-04-21T06:28:34.089Z,13.60
2023-04-21T06:31:01.129Z,10.00
2023-04-21T06:33:27.988Z,7.18
2023-04-21T06:35:54.642Z,6.20
2023-04-21T06:38:21.412Z,6.35
2023-04-21T06:40:48.028Z,5.38
2023-04-21T06:43:14.803Z,5.55
2023-04-21T06:45:41.479Z,5.15
2023-04-21T06:48:08.097Z,5.70
2023-04-21T06:50:34.812Z,5.78
2023-04-21T06:53:01.417Z,4.65
2023-04-21T06:55:28.070Z,5.32
2023-04-21T06:57:54.661Z,5.00
2023-04-21T07:00:21.440Z,4.68
2023-04-21T07:02:48.221Z,4.75
2023-04-21T07:05:14.870Z,4.63
2023-04-21T07:07:41.411Z,4.82
2023-04-21T07:10:08.478Z,4.45
2023-04-21T07:12:35.226Z,4.07
2023-04-21T07:15:02.008Z,4.50
2023-04-21T07:17:28.663Z,3.92
2023-04-21T07:19:55.258Z,3.90
2023-04-21T07:22:21.887Z,4.30
2023-04-21T07:24:49.518Z,3.90
2023-04-21T07:27:18.977Z,3.47
2023-04-21T07:29:45.697Z,3.63
2023-04-21T07:32:12.315Z,3.80
2023-04-21T07:34:39.000Z,3.80
2023-04-21T07:37:05.773Z,3.63
2023-04-21T07:39:32.444Z,4.10
2023-04-21T07:41:59.032Z,3.63
2023-04-21T07:44:25.793Z,3.63
2023-04-21T07:46:52.419Z,3.63
2023-04-21T07:49:19.048Z,3.70
2023-04-21T07:51:45.826Z,3.67
2023-04-21T07:54:15.052Z,3.53
2023-04-21T07:56:41.704Z,3.42
2023-04-21T07:59:11.054Z,3.85
2023-04-21T08:01:37.682Z,3.42
2023-04-21T08:04:04.391Z,3.30
2023-04-21T08:06:33.358Z,3.50
2023-04-21T08:09:00.164Z,3.53
2023-04-21T08:11:28.514Z,3.35
2023-04-21T08:13:55.261Z,3.40
2023-04-21T08:16:21.992Z,3.63
2023-04-21T08:18:48.641Z,3.55
2023-04-21T08:21:15.449Z,3.50
2023-04-21T08:23:42.078Z,3.60
2023-04-21T08:26:09.179Z,3.47
2023-04-21T08:28:35.996Z,3.10
2023-04-21T08:31:02.974Z,3.40
2023-04-21T08:33:29.757Z,3.25
2023-04-21T08:38:28.412Z,3.42
2023-04-21T08:40:55.000Z,3.53
2023-04-21T08:43:21.665Z,3.08
2023-04-21T08:45:48.453Z,3.08
2023-04-21T08:48:18.716Z,2.80
2023-04-21T08:50:46.266Z,3.00
2023-04-21T08:53:12.999Z,3.25
2023-04-21T08:55:40.608Z,2.95
2023-04-21T08:58:09.097Z,3.20
2023-04-21T09:00:36.350Z,3.03
2023-04-21T09:03:05.726Z,3.20
2023-04-21T09:05:42.026Z,3.00
2023-04-21T09:08:14.044Z,2.85
2023-04-21T09:10:45.321Z,3.00
2023-04-21T09:13:12.184Z,2.85
2023-04-21T09:15:49.073Z,2.80
2023-04-21T09:18:17.239Z,3.15
2023-04-21T09:20:44.497Z,3.20
2023-04-21T09:23:11.401Z,3.10
2023-04-21T09:25:42.001Z,3.05
2023-04-21T09:28:09.442Z,2.92
2023-04-21T09:30:39.738Z,2.95
2023-04-21T09:33:16.623Z,3.00
2023-04-21T09:35:43.384Z,2.38
2023-04-21T09:38:11.318Z,2.92
2023-04-21T09:40:37.920Z,2.70
2023-04-21T09:43:04.753Z,3.40
2023-04-21T09:45:39.523Z,2.70
2023-04-21T09:48:06.685Z,2.65
2023-04-21T09:51:15.228Z,2.58
2023-04-21T09:53:20.563Z,2.47
2023-04-21T09:55:48.329Z,2.85
2023-04-21T09:58:15.478Z,2.60
2023-04-21T10:00:42.133Z,2.95
2023-04-21T10:03:11.390Z,2.53
2023-04-21T10:05:41.918Z,2.67
2023-04-21T10:08:11.713Z,2.45
2023-04-21T10:10:38.595Z,2.70
2023-04-21T10:13:05.214Z,2.67
2023-04-21T10:15:39.098Z,2.85
2023-04-21T10:18:25.141Z,2.60
2023-04-21T10:20:58.106Z,2.58
2023-04-21T10:26:17.590Z,2.40
2023-04-21T10:28:57.847Z,2.60
2023-04-21T10:31:52.525Z,2.60
2023-04-21T10:34:25.868Z,2.60
2023-04-21T10:36:55.614Z,2.40
2023-04-21T10:39:42.318Z,2.75
2023-04-21T10:42:24.519Z,2.92
2023-04-21T10:44:57.702Z,2.78
2023-04-21T10:47:27.978Z,2.35
2023-04-21T10:49:59.120Z,2.70
2023-04-21T10:52:33.418Z,2.78
2023-04-21T10:54:59.924Z,2.70
2023-04-21T10:57:26.649Z,2.60
2023-04-21T10:59:53.287Z,2.17
2023-04-21T11:02:20.623Z,2.53
2023-04-21T11:04:51.290Z,2.80
2023-04-21T11:07:23.167Z,2.45
2023-04-21T11:09:57.731Z,2.22
2023-04-21T11:12:30.186Z,2.67
2023-04-21T11:14:57.034Z,2.20
2023-04-21T11:17:24.495Z,2.53
2023-04-21T11:19:55.363Z,2.60
2023-04-21T11:22:23.582Z,2.75
2023-04-21T11:24:52.072Z,3.00
2023-04-21T11:27:19.301Z,3.05
2023-04-21T11:29:48.725Z,3.90
2023-04-21T11:32:15.777Z,3.28
2023-04-21T11:34:42.812Z,3.20
2023-04-21T11:37:10.279Z,3.20
2023-04-21T11:39:40.255Z,3.10
2023-04-21T11:42:06.908Z,2.92
2023-04-21T11:44:43.370Z,2.90
2023-04-21T11:47:17.238Z,2.50
2023-04-21T11:49:48.077Z,2.92
2023-04-21T11:52:28.179Z,2.50
2023-04-21T11:54:59.828Z,2.60
2023-04-21T11:57:30.401Z,2.33
2023-04-21T12:00:00.717Z,2.28
2023-04-21T12:02:28.972Z,2.47
2023-04-21T12:05:09.289Z,2.47
2023-04-21T12:07:44.062Z,2.40
2023-04-21T12:10:12.090Z,2.40
2023-04-21T12:12:39.290Z,2.30
2023-04-21T12:15:09.980Z,2.20
2023-04-21T12:17:46.688Z,2.25
2023-04-21T12:20:16.047Z,2.53
2023-04-21T12:22:42.693Z,2.10
2023-04-21T12:25:09.556Z,2.45
2023-04-21T12:27:36.232Z,2.75
2023-04-21T12:30:06.576Z,2.00
2023-04-21T12:32:33.159Z,2.47
2023-04-21T12:35:00.638Z,2.63
2023-04-21T12:37:27.366Z,2.40
2023-04-21T12:39:53.989Z,2.30
2023-04-21T12:42:20.674Z,2.42
2023-04-21T12:44:47.330Z,2.25
2023-04-21T12:47:13.997Z,2.38
2023-04-21T12:49:42.314Z,2.60
2023-04-21T12:52:09.033Z,2.33
2023-04-21T12:54:35.730Z,2.25
2023-04-21T12:57:02.519Z,2.47
2023-04-21T12:59:29.422Z,2.17
2023-04-21T13:01:56.345Z,2.75
2023-04-21T13:04:23.086Z,2.40
2023-04-21T13:06:50.013Z,2.40
2023-04-21T13:09:17.062Z,2.45
2023-04-21T13:11:43.790Z,2.35
2023-04-21T13:14:10.913Z,2.42
2023-04-21T13:16:37.567Z,2.25
2023-04-21T13:19:07.063Z,2.70
2023-04-21T13:21:33.731Z,2.50
2023-04-21T13:24:02.216Z,2.80
2023-04-21T13:26:28.828Z,3.58
2023-04-21T13:28:55.535Z,3.25
2023-04-21T13:31:22.224Z,2.92
2023-04-21T13:33:48.944Z,2.97
2023-04-21T13:36:15.779Z,3.08
2023-04-21T13:38:42.416Z,2.83
2023-04-21T13:41:09.026Z,2.90
2023-04-21T13:43:35.771Z,2.50
2023-04-21T13:46:02.516Z,2.63
2023-04-21T13:48:29.817Z,3.13
2023-04-21T13:50:56.574Z,2.65
2023-04-21T13:53:23.186Z,2.78
2023-04-21T13:55:49.877Z,2.50
2023-04-21T13:58:19.861Z,2.67
2023-04-21T14:00:46.604Z,2.83
2023-04-21T14:03:14.131Z,2.70
2023-04-21T14:05:41.455Z,2.80
2023-04-21T14:08:08.440Z,2.85
2023-04-21T14:10:35.264Z,2.90
2023-04-21T14:13:02.012Z,2.65
2023-04-21T14:15:28.668Z,2.65
2023-04-21T14:17:56.509Z,2.67
2023-04-21T14:20:23.459Z,2.78
2023-04-21T14:22:53.050Z,2.80
2023-04-21T14:25:19.752Z,2.70
2023-04-21T14:27:46.336Z,2.95
2023-04-21T14:30:13.916Z,3.28
2023-04-21T14:32:45.645Z,4.32
2023-04-21T14:35:12.695Z,4.25
2023-04-21T14:37:39.535Z,4.07
2023-04-21T14:40:08.070Z,3.75
2023-04-21T14:42:34.663Z,3.67
2023-04-21T14:45:01.388Z,3.85
2023-04-21T14:47:28.572Z,3.42
2023-04-21T14:49:56.036Z,3.50
2023-04-21T14:52:25.721Z,3.63
2023-04-21T14:54:52.456Z,8.52
2023-04-21T14:57:21.079Z,4.95
2023-04-21T14:59:51.559Z,4.68
2023-04-21T15:02:22.117Z,4.68
2023-04-21T15:04:49.304Z,4.53
2023-04-21T15:07:19.905Z,4.80
2023-04-21T15:09:51.004Z,4.30
2023-04-21T15:12:17.644Z,4.22
2023-04-21T15:14:44.393Z,4.40
2023-04-21T15:17:11.141Z,3.90
2023-04-21T15:19:37.975Z,3.88
2023-04-21T15:22:05.107Z,4.20
2023-04-21T15:24:31.674Z,3.70
2023-04-21T15:26:58.390Z,4.05
2023-04-21T15:29:25.274Z,4.05
2023-04-21T15:31:51.863Z,4.35
2023-04-21T15:34:18.417Z,3.80
2023-04-21T15:36:47.661Z,3.78
2023-04-21T15:39:14.331Z,3.88
2023-04-21T15:41:41.508Z,3.90
2023-04-21T15:44:10.842Z,3.72
2023-04-21T15:46:37.547Z,4.07
2023-04-21T15:49:04.228Z,4.50
2023-04-21T15:51:34.555Z,4.32
2023-04-21T15:54:01.232Z,4.68
2023-04-21T15:56:27.956Z,4.43
2023-04-21T15:58:54.577Z,3.97
2023-04-21T16:01:24.544Z,4.18
2023-04-21T16:03:51.993Z,4.10
2023-04-21T16:06:21.929Z,4.10
2023-04-21T16:08:51.340Z,3.92
2023-04-21T16:11:18.006Z,3.70
2023-04-21T16:13:44.603Z,3.83
2023-04-21T16:16:11.428Z,4.03
2023-04-21T16:18:38.326Z,3.80
2023-04-21T16:21:05.084Z,3.55
2023-04-21T16:23:31.870Z,3.58
2023-04-21T16:25:58.734Z,3.47
2023-04-21T16:28:25.428Z,3.42
2023-04-21T16:30:52.958Z,3.63
2023-04-21T16:33:19.735Z,3.95
2023-04-21T16:35:49.345Z,3.70
2023-04-21T16:38:16.115Z,3.58
2023-04-21T16:40:42.728Z,3.60
2023-04-21T16:43:09.360Z,3.40
2023-04-21T16:45:36.086Z,3.92
2023-04-21T16:48:02.813Z,3.58
2023-04-21T16:50:29.525Z,3.33
2023-04-21T16:52:56.296Z,3.22
2023-04-21T16:55:22.936Z,3.20
2023-04-21T16:57:49.547Z,3.35
2023-04-21T17:00:16.603Z,3.47
2023-04-21T17:02:43.415Z,3.55
2023-04-21T17:05:11.996Z,3.50
2023-04-21T17:07:39.566Z,3.50
2023-04-21T17:10:07.368Z,3.30
2023-04-21T17:12:34.078Z,3.30
2023-04-21T17:15:00.784Z,3.60
2023-04-21T17:17:27.383Z,3.42
2023-04-21T17:19:54.776Z,3.20
2023-04-21T17:22:24.143Z,3.30
2023-04-21T17:24:53.540Z,3.60
2023-04-21T17:27:21.332Z,3.22
2023-04-21T17:29:48.195Z,3.08
2023-04-21T17:32:14.919Z,3.25
2023-04-21T17:34:41.697Z,3.15
2023-04-21T17:37:08.929Z,3.65
2023-04-21T17:39:35.553Z,3.28
2023-04-21T17:42:02.628Z,3.10
2023-04-21T17:44:29.412Z,3.40
2023-04-21T17:46:56.583Z,3.30
2023-04-21T17:49:24.782Z,3.30
2023-04-21T17:51:51.633Z,3.30
2023-04-21T17:54:18.208Z,3.40
2023-04-21T17:56:46.312Z,3.10
2023-04-21T17:59:13.402Z,3.10
2023-04-21T18:01:41.135Z,3.20
2023-04-21T18:04:11.094Z,3.33
2023-04-21T18:06:39.695Z,3.35
2023-04-21T18:09:07.355Z,3.28
2023-04-21T18:11:34.538Z,3.53
2023-04-21T18:14:01.840Z,3.22
2023-04-21T18:16:32.057Z,3.30
2023-04-21T18:18:59.197Z,3.00
2023-04-21T18:21:27.390Z,3.10
2023-04-21T18:23:54.221Z,3.10
2023-04-21T18:26:23.539Z,2.90
2023-04-21T18:28:52.525Z,2.85
2023-04-21T18:31:22.064Z,3.00
2023-04-21T18:33:50.658Z,3.15
2023-04-21T18:36:18.206Z,2.15
2023-04-21T18:38:45.204Z,2.30
2023-04-21T18:41:11.920Z,2.20
2023-04-21T18:43:38.594Z,2.10
2023-04-21T18:46:05.619Z,2.08
2023-04-21T18:48:32.256Z,2.10
2023-04-21T18:51:01.540Z,2.33
2023-04-21T18:53:28.315Z,2.10
2023-04-21T18:55:55.050Z,2.05
2023-04-21T18:58:21.731Z,2.20
2023-04-21T19:00:48.654Z,2.05
2023-04-21T19:03:15.576Z,2.28
2023-04-21T19:05:42.379Z,2.30
2023-04-21T19:08:09.788Z,2.35
2023-04-21T19:10:40.772Z,1.90
2023-04-21T19:13:07.403Z,2.15
2023-04-21T19:15:35.017Z,2.10
2023-04-21T19:18:01.778Z,2.38
2023-04-21T19:20:29.373Z,2.00
2023-04-21T19:22:56.083Z,2.22
2023-04-21T19:25:22.826Z,2.30
2023-04-21T19:27:49.497Z,2.20
2023-04-21T19:30:19.357Z,2.15
2023-04-21T19:32:46.114Z,2.20
2023-04-21T19:35:13.315Z,2.38
2023-04-21T19:37:40.004Z,2.20
2023-04-21T19:40:08.101Z,2.40
2023-04-21T19:42:34.776Z,2.03
2023-04-21T19:45:01.586Z,2.20
2023-04-21T19:47:28.385Z,2.05
2023-04-21T19:49:55.198Z,2.20
2023-04-21T19:52:21.863Z,1.98
2023-04-21T19:54:48.546Z,2.22
2023-04-21T19:57:15.955Z,2.20
2023-04-21T19:59:42.717Z,2.10
2023-04-21T20:02:09.609Z,2.15
2023-04-21T20:04:37.494Z,2.10
2023-04-21T20:07:04.314Z,2.05
2023-04-21T20:09:31.179Z,1.90
2023-04-21T20:11:57.874Z,2.33
2023-04-21T20:14:24.637Z,2.25
2023-04-21T20:16:51.632Z,2.20
2023-04-21T20:19:18.803Z,2.10
2023-04-21T20:21:45.583Z,1.92
2023-04-21T20:24:15.534Z,2.00
2023-04-21T20:26:42.207Z,2.08
2023-04-21T20:29:09.229Z,2.30
2023-04-21T20:31:36.394Z,1.88
2023-04-21T20:34:03.054Z,1.90
2023-04-21T20:36:29.699Z,2.00
2023-04-21T20:38:57.212Z,1.92
2023-04-21T20:41:24.229Z,2.13
2023-04-21T20:43:51.014Z,1.98
2023-04-21T20:46:17.890Z,1.95
2023-04-21T20:48:44.541Z,1.90
2023-04-21T20:51:11.226Z,1.90
2023-04-21T20:53:37.862Z,1.95
2023-04-21T20:56:07.502Z,1.95
2023-04-21T20:58:36.065Z,1.80
2023-04-21T21:01:02.994Z,1.92
2023-04-21T21:03:30.854Z,2.00
2023-04-21T21:05:57.818Z,1.85
2023-04-21T21:08:24.554Z,1.90
2023-04-21T21:10:51.212Z,2.10
2023-04-21T21:13:17.988Z,2.00
2023-04-21T21:15:44.572Z,2.00
2023-04-21T21:18:11.540Z,2.10
2023-04-21T21:20:38.259Z,1.90
2023-04-21T21:23:05.027Z,2.10
2023-04-21T21:25:31.752Z,1.80
2023-04-21T21:27:58.420Z,1.90
2023-04-21T21:30:25.092Z,1.92
2023-04-21T21:32:53.680Z,1.70
2023-04-21T21:35:21.056Z,1.80
2023-04-21T21:37:47.679Z,1.77
2023-04-21T21:40:14.334Z,1.70
2023-04-21T21:42:40.935Z,1.80
2023-04-21T21:45:08.058Z,1.55
2023-04-21T21:47:37.324Z,2.13
2023-04-21T21:50:06.677Z,1.83
2023-04-21T21:52:33.369Z,1.80
2023-04-21T21:54:59.956Z,2.00
2023-04-21T21:57:26.593Z,1.77
2023-04-21T21:59:53.288Z,2.00
2023-04-21T22:02:19.949Z,2.00
2023-04-21T22:04:46.985Z,1.90
2023-04-21T22:07:16.922Z,1.88
2023-04-21T22:09:43.535Z,1.80
2023-04-21T22:12:10.142Z,1.83
2023-04-21T22:14:36.745Z,1.90
2023-04-21T22:17:03.369Z,1.98
2023-04-21T22:19:30.958Z,1.95
2023-04-21T22:21:59.980Z,1.90
2023-04-21T22:24:26.691Z,1.67
2023-04-21T22:26:53.330Z,1.80
2023-04-21T22:29:19.918Z,1.90
2023-04-21T22:31:46.759Z,2.05
2023-04-21T22:34:15.061Z,1.80
2023-04-21T22:36:41.740Z,1.70
2023-04-21T22:39:08.295Z,1.80
2023-04-21T22:41:34.846Z,2.05
2023-04-21T22:44:01.388Z,1.70
2023-04-21T22:46:31.971Z,1.90
2023-04-21T22:48:59.517Z,1.90
2023-04-21T22:51:27.815Z,1.85
2023-04-21T22:53:54.384Z,1.65
2023-04-21T22:56:21.110Z,1.65
2023-04-21T22:58:47.755Z,1.58
2023-04-21T23:01:14.361Z,1.80
2023-04-21T23:03:41.438Z,1.65
2023-04-21T23:06:08.089Z,1.77
2023-04-21T23:08:34.645Z,1.83
2023-04-21T23:11:01.899Z,1.80
2023-04-21T23:13:28.444Z,1.70
2023-04-21T23:15:55.017Z,1.85
2023-04-21T23:18:21.636Z,1.80
2023-04-21T23:20:48.311Z,1.33
2023-04-21T23:23:14.868Z,1.52
2023-04-21T23:25:41.364Z,1.60
2023-04-21T23:28:08.006Z,1.65
2023-04-21T23:30:34.682Z,1.70
2023-04-21T23:33:01.437Z,1.58
2023-04-21T23:35:28.097Z,1.92
2023-04-21T23:37:54.668Z,1.50
2023-04-21T23:40:21.395Z,1.50
2023-04-21T23:42:48.316Z,1.55
2023-04-21T23:45:15.108Z,1.60
2023-04-21T23:47:41.900Z,1.45
2023-04-21T23:50:08.800Z,1.90
2023-04-21T23:52:35.460Z,1.90
2023-04-21T23:55:02.111Z,1.50
2023-04-21T23:57:28.722Z,1.75
2023-04-21T23:59:55.421Z,1.60
